Terminal Aerodrome Forecast
Issued by NWS Melbourne, FL

Home | Current Version | Previous Version | Text Only | Print | Product List | Glossary On
Versions: 1 2 3 4 5 6 7 8 9 10 11 12 13 14 15 16 17 18 19 20 21 22 23 24
000
FTUS42 KMLB 011100
TAFMCO
TAF
KMCO 011132Z 0112/0212 VRB03KT P6SM FEW040 SCT250
     FM011500 15012KT P6SM SCT040
     FM020000 16006KT P6SM FEW040 BKN200
     FM020900 18007KT P6SM SCT020 BKN120 WS010/20032KT=

USA.gov is the U.S. government's official web portal to all federal, state and local government web resources and services.